sensor_id;sensor_type;location;lat;lon;timestamp;P1;durP1;ratioP1;P2;durP2;ratioP2
5650;SDS011;40241;52.684;9.758;2023-09-07T00:01:00;3.17;;;2.97;;
5650;SDS011;40241;52.684;9.758;2023-09-07T00:03:29;2.60;;;2.40;;
5650;SDS011;40241;52.684;9.758;2023-09-07T00:05:54;2.30;;;2.20;;
5650;SDS011;40241;52.684;9.758;2023-09-07T00:08:20;2.33;;;2.20;;
5650;SDS011;40241;52.684;9.758;2023-09-07T00:10:45;3.47;;;2.43;;
5650;SDS011;40241;52.684;9.758;2023-09-07T00:13:11;2.47;;;2.27;;
5650;SDS011;40241;52.684;9.758;2023-09-07T00:15:37;2.10;;;2.00;;
5650;SDS011;40241;52.684;9.758;2023-09-07T00:18:03;2.53;;;2.43;;
5650;SDS011;40241;52.684;9.758;2023-09-07T00:20:28;3.57;;;2.20;;
5650;SDS011;40241;52.684;9.758;2023-09-07T00:22:54;2.83;;;2.63;;
5650;SDS011;40241;52.684;9.758;2023-09-07T00:25:19;2.10;;;2.00;;
5650;SDS011;40241;52.684;9.758;2023-09-07T00:27:45;2.30;;;2.20;;
5650;SDS011;40241;52.684;9.758;2023-09-07T00:30:11;3.13;;;2.57;;
5650;SDS011;40241;52.684;9.758;2023-09-07T00:32:37;2.77;;;2.57;;
5650;SDS011;40241;52.684;9.758;2023-09-07T00:35:03;2.27;;;2.17;;
5650;SDS011;40241;52.684;9.758;2023-09-07T00:37:29;2.10;;;1.93;;
5650;SDS011;40241;52.684;9.758;2023-09-07T00:39:54;2.20;;;2.10;;
5650;SDS011;40241;52.684;9.758;2023-09-07T00:42:20;2.50;;;2.30;;
5650;SDS011;40241;52.684;9.758;2023-09-07T00:44:45;2.40;;;2.30;;
5650;SDS011;40241;52.684;9.758;2023-09-07T00:47:11;2.07;;;1.97;;
5650;SDS011;40241;52.684;9.758;2023-09-07T00:49:36;2.60;;;2.20;;
5650;SDS011;40241;52.684;9.758;2023-09-07T00:52:03;2.57;;;2.37;;
5650;SDS011;40241;52.684;9.758;2023-09-07T00:54:29;3.00;;;2.27;;
5650;SDS011;40241;52.684;9.758;2023-09-07T00:56:55;2.33;;;2.13;;
5650;SDS011;40241;52.684;9.758;2023-09-07T00:59:21;2.57;;;2.37;;
5650;SDS011;40241;52.684;9.758;2023-09-07T01:01:47;3.53;;;3.17;;
5650;SDS011;40241;52.684;9.758;2023-09-07T01:04:14;2.80;;;2.60;;
5650;SDS011;40241;52.684;9.758;2023-09-07T01:06:40;2.83;;;2.47;;
5650;SDS011;40241;52.684;9.758;2023-09-07T01:09:11;2.43;;;2.33;;
5650;SDS011;40241;52.684;9.758;2023-09-07T01:11:42;2.77;;;2.57;;
5650;SDS011;40241;52.684;9.758;2023-09-07T01:14:08;2.80;;;2.60;;
5650;SDS011;40241;52.684;9.758;2023-09-07T01:16:34;2.23;;;2.13;;
5650;SDS011;40241;52.684;9.758;2023-09-07T01:19:00;2.67;;;2.47;;
5650;SDS011;40241;52.684;9.758;2023-09-07T01:21:27;3.10;;;2.80;;
5650;SDS011;40241;52.684;9.758;2023-09-07T01:23:59;2.77;;;2.53;;
5650;SDS011;40241;52.684;9.758;2023-09-07T01:26:25;2.37;;;2.27;;
5650;SDS011;40241;52.684;9.758;2023-09-07T01:28:50;2.90;;;2.70;;
5650;SDS011;40241;52.684;9.758;2023-09-07T01:31:16;3.17;;;2.80;;
5650;SDS011;40241;52.684;9.758;2023-09-07T01:33:42;2.83;;;2.43;;
5650;SDS011;40241;52.684;9.758;2023-09-07T01:36:07;2.57;;;2.37;;
5650;SDS011;40241;52.684;9.758;2023-09-07T01:38:33;2.50;;;2.40;;
5650;SDS011;40241;52.684;9.758;2023-09-07T01:40:58;3.13;;;2.93;;
5650;SDS011;40241;52.684;9.758;2023-09-07T01:43:23;2.50;;;2.40;;
5650;SDS011;40241;52.684;9.758;2023-09-07T01:45:48;3.40;;;3.10;;
5650;SDS011;40241;52.684;9.758;2023-09-07T01:48:14;4.30;;;2.87;;
5650;SDS011;40241;52.684;9.758;2023-09-07T01:50:39;2.80;;;2.60;;
5650;SDS011;40241;52.684;9.758;2023-09-07T01:53:05;2.73;;;2.50;;
5650;SDS011;40241;52.684;9.758;2023-09-07T01:55:31;3.40;;;3.10;;
5650;SDS011;40241;52.684;9.758;2023-09-07T01:57:56;2.20;;;2.10;;
5650;SDS011;40241;52.684;9.758;2023-09-07T02:00:22;6.90;;;2.97;;
5650;SDS011;40241;52.684;9.758;2023-09-07T02:02:47;3.10;;;2.90;;
5650;SDS011;40241;52.684;9.758;2023-09-07T02:05:12;2.77;;;2.53;;
5650;SDS011;40241;52.684;9.758;2023-09-07T02:07:38;3.07;;;2.77;;
5650;SDS011;40241;52.684;9.758;2023-09-07T02:10:03;3.27;;;3.07;;
5650;SDS011;40241;52.684;9.758;2023-09-07T02:12:29;4.70;;;2.77;;
5650;SDS011;40241;52.684;9.758;2023-09-07T02:14:55;2.67;;;2.50;;
5650;SDS011;40241;52.684;9.758;2023-09-07T02:17:20;2.73;;;2.50;;
5650;SDS011;40241;52.684;9.758;2023-09-07T02:19:46;3.33;;;3.13;;
5650;SDS011;40241;52.684;9.758;2023-09-07T02:22:11;3.20;;;2.90;;
5650;SDS011;40241;52.684;9.758;2023-09-07T02:24:37;3.00;;;2.67;;
5650;SDS011;40241;52.684;9.758;2023-09-07T02:27:02;3.23;;;3.03;;
5650;SDS011;40241;52.684;9.758;2023-09-07T02:29:27;2.70;;;2.50;;
5650;SDS011;40241;52.684;9.758;2023-09-07T02:31:53;3.80;;;3.27;;
5650;SDS011;40241;52.684;9.758;2023-09-07T02:34:18;3.50;;;2.70;;
5650;SDS011;40241;52.684;9.758;2023-09-07T02:36:43;3.50;;;3.20;;
5650;SDS011;40241;52.684;9.758;2023-09-07T02:39:09;3.10;;;2.90;;
5650;SDS011;40241;52.684;9.758;2023-09-07T02:41:36;3.30;;;3.10;;
5650;SDS011;40241;52.684;9.758;2023-09-07T02:44:01;3.03;;;2.83;;
5650;SDS011;40241;52.684;9.758;2023-09-07T02:46:27;3.50;;;3.20;;
5650;SDS011;40241;52.684;9.758;2023-09-07T02:48:53;3.67;;;2.97;;
5650;SDS011;40241;52.684;9.758;2023-09-07T02:51:22;3.27;;;3.07;;
5650;SDS011;40241;52.684;9.758;2023-09-07T02:53:47;3.47;;;3.17;;
5650;SDS011;40241;52.684;9.758;2023-09-07T02:56:13;3.70;;;3.40;;
5650;SDS011;40241;52.684;9.758;2023-09-07T02:58:38;3.13;;;2.93;;
5650;SDS011;40241;52.684;9.758;2023-09-07T03:01:07;3.07;;;2.87;;
5650;SDS011;40241;52.684;9.758;2023-09-07T03:03:36;3.07;;;2.87;;
5650;SDS011;40241;52.684;9.758;2023-09-07T03:06:08;3.20;;;2.97;;
5650;SDS011;40241;52.684;9.758;2023-09-07T03:08:34;3.40;;;2.87;;
5650;SDS011;40241;52.684;9.758;2023-09-07T03:11:02;3.13;;;2.93;;
5650;SDS011;40241;52.684;9.758;2023-09-07T03:13:29;2.97;;;2.77;;
5650;SDS011;40241;52.684;9.758;2023-09-07T03:15:54;2.80;;;2.60;;
5650;SDS011;40241;52.684;9.758;2023-09-07T03:18:20;3.63;;;3.33;;
5650;SDS011;40241;52.684;9.758;2023-09-07T03:20:46;2.90;;;2.70;;
5650;SDS011;40241;52.684;9.758;2023-09-07T03:23:12;2.63;;;2.47;;
5650;SDS011;40241;52.684;9.758;2023-09-07T03:25:37;3.37;;;3.17;;
5650;SDS011;40241;52.684;9.758;2023-09-07T03:28:02;4.80;;;2.90;;
5650;SDS011;40241;52.684;9.758;2023-09-07T03:30:28;3.03;;;2.83;;
5650;SDS011;40241;52.684;9.758;2023-09-07T03:32:54;3.07;;;2.87;;
5650;SDS011;40241;52.684;9.758;2023-09-07T03:35:19;2.93;;;2.73;;
5650;SDS011;40241;52.684;9.758;2023-09-07T03:37:45;2.77;;;2.60;;
5650;SDS011;40241;52.684;9.758;2023-09-07T03:40:10;3.33;;;3.13;;
5650;SDS011;40241;52.684;9.758;2023-09-07T03:42:36;3.23;;;3.03;;
5650;SDS011;40241;52.684;9.758;2023-09-07T03:45:01;3.63;;;3.33;;
5650;SDS011;40241;52.684;9.758;2023-09-07T03:47:28;3.43;;;3.20;;
5650;SDS011;40241;52.684;9.758;2023-09-07T03:49:54;3.60;;;3.40;;
5650;SDS011;40241;52.684;9.758;2023-09-07T03:52:21;3.37;;;3.07;;
5650;SDS011;40241;52.684;9.758;2023-09-07T03:54:49;3.90;;;3.60;;
5650;SDS011;40241;52.684;9.758;2023-09-07T03:57:15;4.07;;;3.70;;
5650;SDS011;40241;52.684;9.758;2023-09-07T03:59:40;3.90;;;3.60;;
5650;SDS011;40241;52.684;9.758;2023-09-07T04:02:05;3.73;;;3.43;;
5650;SDS011;40241;52.684;9.758;2023-09-07T04:04:31;3.53;;;3.30;;
5650;SDS011;40241;52.684;9.758;2023-09-07T04:06:56;4.20;;;3.90;;
5650;SDS011;40241;52.684;9.758;2023-09-07T04:09:21;4.27;;;3.90;;
5650;SDS011;40241;52.684;9.758;2023-09-07T04:11:47;4.07;;;3.70;;
5650;SDS011;40241;52.684;9.758;2023-09-07T04:14:12;3.80;;;3.40;;
5650;SDS011;40241;52.684;9.758;2023-09-07T04:16:37;3.90;;;3.60;;
5650;SDS011;40241;52.684;9.758;2023-09-07T04:19:03;3.80;;;3.50;;
5650;SDS011;40241;52.684;9.758;2023-09-07T04:21:28;3.13;;;2.93;;
5650;SDS011;40241;52.684;9.758;2023-09-07T04:23:53;3.23;;;3.03;;
5650;SDS011;40241;52.684;9.758;2023-09-07T04:26:19;3.83;;;3.50;;
5650;SDS011;40241;52.684;9.758;2023-09-07T04:28:44;3.83;;;3.53;;
5650;SDS011;40241;52.684;9.758;2023-09-07T04:31:09;3.57;;;3.37;;
5650;SDS011;40241;52.684;9.758;2023-09-07T04:33:35;3.30;;;3.10;;
5650;SDS011;40241;52.684;9.758;2023-09-07T04:36:08;3.23;;;3.03;;
5650;SDS011;40241;52.684;9.758;2023-09-07T04:38:34;3.23;;;2.93;;
5650;SDS011;40241;52.684;9.758;2023-09-07T04:41:09;3.63;;;3.13;;
5650;SDS011;40241;52.684;9.758;2023-09-07T04:43:36;3.30;;;3.10;;
5650;SDS011;40241;52.684;9.758;2023-09-07T04:46:02;6.90;;;3.17;;
5650;SDS011;40241;52.684;9.758;2023-09-07T04:48:28;3.30;;;3.10;;
5650;SDS011;40241;52.684;9.758;2023-09-07T04:51:03;3.70;;;3.40;;
5650;SDS011;40241;52.684;9.758;2023-09-07T04:53:32;3.43;;;3.10;;
5650;SDS011;40241;52.684;9.758;2023-09-07T04:56:00;3.73;;;3.43;;
5650;SDS011;40241;52.684;9.758;2023-09-07T04:58:25;2.97;;;2.77;;
5650;SDS011;40241;52.684;9.758;2023-09-07T05:00:51;3.13;;;2.93;;
5650;SDS011;40241;52.684;9.758;2023-09-07T05:03:17;3.67;;;3.43;;
5650;SDS011;40241;52.684;9.758;2023-09-07T05:05:42;3.57;;;3.27;;
5650;SDS011;40241;52.684;9.758;2023-09-07T05:08:11;2.50;;;2.40;;
5650;SDS011;40241;52.684;9.758;2023-09-07T05:10:37;2.90;;;2.77;;
5650;SDS011;40241;52.684;9.758;2023-09-07T05:13:03;3.73;;;3.37;;
5650;SDS011;40241;52.684;9.758;2023-09-07T05:15:28;3.53;;;3.23;;
5650;SDS011;40241;52.684;9.758;2023-09-07T05:17:54;3.37;;;3.17;;
5650;SDS011;40241;52.684;9.758;2023-09-07T05:20:19;3.20;;;3.00;;
5650;SDS011;40241;52.684;9.758;2023-09-07T05:22:45;3.60;;;3.30;;
5650;SDS011;40241;52.684;9.758;2023-09-07T05:25:11;3.83;;;3.53;;
5650;SDS011;40241;52.684;9.758;2023-09-07T05:27:36;3.03;;;2.83;;
5650;SDS011;40241;52.684;9.758;2023-09-07T05:30:02;3.47;;;3.27;;
5650;SDS011;40241;52.684;9.758;2023-09-07T05:32:28;3.20;;;3.00;;
5650;SDS011;40241;52.684;9.758;2023-09-07T05:34:53;2.73;;;2.63;;
5650;SDS011;40241;52.684;9.758;2023-09-07T05:37:19;3.87;;;3.60;;
5650;SDS011;40241;52.684;9.758;2023-09-07T05:39:44;3.50;;;3.20;;
5650;SDS011;40241;52.684;9.758;2023-09-07T05:42:10;2.80;;;2.60;;
5650;SDS011;40241;52.684;9.758;2023-09-07T05:44:35;3.00;;;2.80;;
5650;SDS011;40241;52.684;9.758;2023-09-07T05:47:00;3.03;;;2.73;;
5650;SDS011;40241;52.684;9.758;2023-09-07T05:49:27;3.23;;;3.03;;
5650;SDS011;40241;52.684;9.758;2023-09-07T05:51:52;2.93;;;2.73;;
5650;SDS011;40241;52.684;9.758;2023-09-07T05:54:18;2.67;;;2.47;;
5650;SDS011;40241;52.684;9.758;2023-09-07T05:56:43;3.30;;;3.10;;
5650;SDS011;40241;52.684;9.758;2023-09-07T05:59:09;3.03;;;2.77;;
5650;SDS011;40241;52.684;9.758;2023-09-07T06:01:34;3.30;;;3.10;;
5650;SDS011;40241;52.684;9.758;2023-09-07T06:04:00;3.73;;;3.13;;
5650;SDS011;40241;52.684;9.758;2023-09-07T06:06:25;3.23;;;3.03;;
5650;SDS011;40241;52.684;9.758;2023-09-07T06:08:50;2.60;;;2.50;;
5650;SDS011;40241;52.684;9.758;2023-09-07T06:11:16;3.13;;;2.93;;
5650;SDS011;40241;52.684;9.758;2023-09-07T06:13:41;3.63;;;2.97;;
5650;SDS011;40241;52.684;9.758;2023-09-07T06:16:07;3.70;;;3.40;;
5650;SDS011;40241;52.684;9.758;2023-09-07T06:18:32;3.00;;;2.80;;
5650;SDS011;40241;52.684;9.758;2023-09-07T06:20:57;3.60;;;3.30;;
5650;SDS011;40241;52.684;9.758;2023-09-07T06:23:23;4.23;;;3.83;;
5650;SDS011;40241;52.684;9.758;2023-09-07T06:25:48;3.60;;;3.33;;
5650;SDS011;40241;52.684;9.758;2023-09-07T06:28:13;3.90;;;3.53;;
5650;SDS011;40241;52.684;9.758;2023-09-07T06:30:39;4.00;;;3.60;;
5650;SDS011;40241;52.684;9.758;2023-09-07T06:33:04;3.23;;;2.93;;
5650;SDS011;40241;52.684;9.758;2023-09-07T06:35:30;4.03;;;3.23;;
5650;SDS011;40241;52.684;9.758;2023-09-07T06:37:55;3.53;;;3.23;;
5650;SDS011;40241;52.684;9.758;2023-09-07T06:40:21;3.23;;;2.93;;
5650;SDS011;40241;52.684;9.758;2023-09-07T06:42:47;6.17;;;3.77;;
5650;SDS011;40241;52.684;9.758;2023-09-07T06:45:12;2.97;;;2.77;;
5650;SDS011;40241;52.684;9.758;2023-09-07T06:47:37;3.70;;;3.40;;
5650;SDS011;40241;52.684;9.758;2023-09-07T06:50:03;4.00;;;3.70;;
5650;SDS011;40241;52.684;9.758;2023-09-07T06:52:30;4.43;;;4.00;;
5650;SDS011;40241;52.684;9.758;2023-09-07T06:54:55;4.30;;;3.97;;
5650;SDS011;40241;52.684;9.758;2023-09-07T06:57:21;4.83;;;4.00;;
5650;SDS011;40241;52.684;9.758;2023-09-07T06:59:46;5.30;;;3.70;;
5650;SDS011;40241;52.684;9.758;2023-09-07T07:02:13;4.47;;;3.83;;
5650;SDS011;40241;52.684;9.758;2023-09-07T07:04:38;4.60;;;4.20;;
5650;SDS011;40241;52.684;9.758;2023-09-07T07:07:04;4.27;;;3.87;;
5650;SDS011;40241;52.684;9.758;2023-09-07T07:09:30;8.70;;;4.27;;
5650;SDS011;40241;52.684;9.758;2023-09-07T07:11:57;11.03;;;4.50;;
5650;SDS011;40241;52.684;9.758;2023-09-07T07:14:25;4.70;;;4.30;;
5650;SDS011;40241;52.684;9.758;2023-09-07T07:16:50;5.00;;;4.00;;
5650;SDS011;40241;52.684;9.758;2023-09-07T07:19:16;4.33;;;4.03;;
5650;SDS011;40241;52.684;9.758;2023-09-07T07:21:41;6.60;;;4.07;;
5650;SDS011;40241;52.684;9.758;2023-09-07T07:24:07;7.30;;;4.13;;
5650;SDS011;40241;52.684;9.758;2023-09-07T07:26:32;5.07;;;4.43;;
5650;SDS011;40241;52.684;9.758;2023-09-07T07:28:58;9.83;;;4.77;;
5650;SDS011;40241;52.684;9.758;2023-09-07T07:31:23;4.83;;;4.43;;
5650;SDS011;40241;52.684;9.758;2023-09-07T07:33:48;4.33;;;3.87;;
5650;SDS011;40241;52.684;9.758;2023-09-07T07:36:14;4.10;;;3.80;;
5650;SDS011;40241;52.684;9.758;2023-09-07T07:38:39;6.30;;;4.70;;
5650;SDS011;40241;52.684;9.758;2023-09-07T07:41:05;4.63;;;4.23;;
5650;SDS011;40241;52.684;9.758;2023-09-07T07:43:30;4.77;;;4.37;;
5650;SDS011;40241;52.684;9.758;2023-09-07T07:45:57;4.93;;;4.53;;
5650;SDS011;40241;52.684;9.758;2023-09-07T07:48:22;4.87;;;4.47;;
5650;SDS011;40241;52.684;9.758;2023-09-07T07:50:47;4.37;;;3.97;;
5650;SDS011;40241;52.684;9.758;2023-09-07T07:53:13;4.50;;;4.20;;
5650;SDS011;40241;52.684;9.758;2023-09-07T07:55:39;4.63;;;4.23;;
5650;SDS011;40241;52.684;9.758;2023-09-07T07:58:06;8.63;;;4.53;;
5650;SDS011;40241;52.684;9.758;2023-09-07T08:00:33;5.60;;;4.67;;
5650;SDS011;40241;52.684;9.758;2023-09-07T08:03:01;4.57;;;4.17;;
5650;SDS011;40241;52.684;9.758;2023-09-07T08:05:34;4.33;;;3.93;;
5650;SDS011;40241;52.684;9.758;2023-09-07T08:08:00;4.43;;;4.00;;
5650;SDS011;40241;52.684;9.758;2023-09-07T08:10:25;4.70;;;4.30;;
5650;SDS011;40241;52.684;9.758;2023-09-07T08:12:53;7.67;;;3.87;;
5650;SDS011;40241;52.684;9.758;2023-09-07T08:15:19;4.10;;;3.70;;
5650;SDS011;40241;52.684;9.758;2023-09-07T08:17:47;4.73;;;4.27;;
5650;SDS011;40241;52.684;9.758;2023-09-07T08:20:13;4.60;;;3.80;;
5650;SDS011;40241;52.684;9.758;2023-09-07T08:22:39;5.20;;;4.20;;
5650;SDS011;40241;52.684;9.758;2023-09-07T08:25:07;4.00;;;3.70;;
5650;SDS011;40241;52.684;9.758;2023-09-07T08:27:33;4.73;;;3.83;;
5650;SDS011;40241;52.684;9.758;2023-09-07T08:29:58;5.07;;;4.03;;
5650;SDS011;40241;52.684;9.758;2023-09-07T08:32:24;3.50;;;3.20;;
5650;SDS011;40241;52.684;9.758;2023-09-07T08:34:50;4.00;;;3.70;;
5650;SDS011;40241;52.684;9.758;2023-09-07T08:37:16;4.10;;;3.70;;
5650;SDS011;40241;52.684;9.758;2023-09-07T08:39:42;4.53;;;3.37;;
5650;SDS011;40241;52.684;9.758;2023-09-07T08:42:07;4.13;;;3.80;;
5650;SDS011;40241;52.684;9.758;2023-09-07T08:44:33;4.17;;;3.80;;
5650;SDS011;40241;52.684;9.758;2023-09-07T08:47:02;3.93;;;3.53;;
5650;SDS011;40241;52.684;9.758;2023-09-07T08:49:29;3.63;;;3.33;;
5650;SDS011;40241;52.684;9.758;2023-09-07T08:51:57;4.70;;;4.00;;
5650;SDS011;40241;52.684;9.758;2023-09-07T08:54:24;3.67;;;3.37;;
5650;SDS011;40241;52.684;9.758;2023-09-07T08:56:49;4.37;;;3.97;;
5650;SDS011;40241;52.684;9.758;2023-09-07T08:59:15;4.67;;;3.57;;
5650;SDS011;40241;52.684;9.758;2023-09-07T09:01:40;4.00;;;3.67;;
5650;SDS011;40241;52.684;9.758;2023-09-07T09:04:06;3.50;;;3.20;;
5650;SDS011;40241;52.684;9.758;2023-09-07T09:06:32;3.80;;;3.50;;
5650;SDS011;40241;52.684;9.758;2023-09-07T09:08:58;7.43;;;3.40;;
5650;SDS011;40241;52.684;9.758;2023-09-07T09:11:24;6.00;;;3.50;;
5650;SDS011;40241;52.684;9.758;2023-09-07T09:13:50;4.33;;;3.93;;
5650;SDS011;40241;52.684;9.758;2023-09-07T09:16:17;3.50;;;3.20;;
5650;SDS011;40241;52.684;9.758;2023-09-07T09:18:56;3.53;;;3.23;;
5650;SDS011;40241;52.684;9.758;2023-09-07T09:21:23;3.10;;;2.90;;
5650;SDS011;40241;52.684;9.758;2023-09-07T09:23:51;3.57;;;3.37;;
5650;SDS011;40241;52.684;9.758;2023-09-07T09:26:18;4.53;;;3.53;;
5650;SDS011;40241;52.684;9.758;2023-09-07T09:28:44;3.50;;;3.20;;
5650;SDS011;40241;52.684;9.758;2023-09-07T09:31:10;3.53;;;3.23;;
5650;SDS011;40241;52.684;9.758;2023-09-07T09:33:40;3.50;;;3.20;;
5650;SDS011;40241;52.684;9.758;2023-09-07T09:36:06;3.73;;;3.33;;
5650;SDS011;40241;52.684;9.758;2023-09-07T09:38:33;3.63;;;3.07;;
5650;SDS011;40241;52.684;9.758;2023-09-07T09:40:59;3.00;;;2.80;;
5650;SDS011;40241;52.684;9.758;2023-09-07T09:43:25;3.67;;;3.37;;
5650;SDS011;40241;52.684;9.758;2023-09-07T09:45:51;3.17;;;2.97;;
5650;SDS011;40241;52.684;9.758;2023-09-07T09:48:20;3.37;;;3.17;;
5650;SDS011;40241;52.684;9.758;2023-09-07T09:50:47;3.83;;;3.50;;
5650;SDS011;40241;52.684;9.758;2023-09-07T09:53:13;3.23;;;2.93;;
5650;SDS011;40241;52.684;9.758;2023-09-07T09:55:43;3.00;;;2.77;;
5650;SDS011;40241;52.684;9.758;2023-09-07T09:58:15;3.63;;;3.30;;
5650;SDS011;40241;52.684;9.758;2023-09-07T10:00:44;4.23;;;2.70;;
5650;SDS011;40241;52.684;9.758;2023-09-07T10:03:23;3.20;;;2.93;;
5650;SDS011;40241;52.684;9.758;2023-09-07T10:05:52;3.43;;;3.20;;
5650;SDS011;40241;52.684;9.758;2023-09-07T10:08:18;3.60;;;3.10;;
5650;SDS011;40241;52.684;9.758;2023-09-07T10:10:48;3.03;;;2.67;;
5650;SDS011;40241;52.684;9.758;2023-09-07T10:13:27;3.40;;;3.10;;
5650;SDS011;40241;52.684;9.758;2023-09-07T10:16:02;3.03;;;2.77;;
5650;SDS011;40241;52.684;9.758;2023-09-07T10:18:35;3.33;;;3.10;;
5650;SDS011;40241;52.684;9.758;2023-09-07T10:21:03;2.90;;;2.70;;
5650;SDS011;40241;52.684;9.758;2023-09-07T10:23:39;2.90;;;2.70;;
5650;SDS011;40241;52.684;9.758;2023-09-07T10:28:38;3.50;;;3.23;;
5650;SDS011;40241;52.684;9.758;2023-09-07T10:31:07;3.47;;;3.17;;
5650;SDS011;40241;52.684;9.758;2023-09-07T10:33:38;3.10;;;2.90;;
5650;SDS011;40241;52.684;9.758;2023-09-07T10:36:04;4.40;;;3.00;;
5650;SDS011;40241;52.684;9.758;2023-09-07T10:38:31;3.10;;;2.90;;
5650;SDS011;40241;52.684;9.758;2023-09-07T10:40:58;2.93;;;2.73;;
5650;SDS011;40241;52.684;9.758;2023-09-07T10:43:25;4.70;;;3.60;;
5650;SDS011;40241;52.684;9.758;2023-09-07T10:45:52;3.33;;;3.03;;
5650;SDS011;40241;52.684;9.758;2023-09-07T10:48:18;3.37;;;3.03;;
5650;SDS011;40241;52.684;9.758;2023-09-07T10:50:44;3.13;;;2.93;;
5650;SDS011;40241;52.684;9.758;2023-09-07T10:53:11;3.13;;;2.83;;
5650;SDS011;40241;52.684;9.758;2023-09-07T10:55:39;3.80;;;2.60;;
5650;SDS011;40241;52.684;9.758;2023-09-07T10:58:05;4.90;;;3.73;;
5650;SDS011;40241;52.684;9.758;2023-09-07T11:00:31;4.20;;;3.13;;
5650;SDS011;40241;52.684;9.758;2023-09-07T11:02:56;3.33;;;3.07;;
5650;SDS011;40241;52.684;9.758;2023-09-07T11:05:22;4.13;;;3.10;;
5650;SDS011;40241;52.684;9.758;2023-09-07T11:07:47;2.80;;;2.60;;
5650;SDS011;40241;52.684;9.758;2023-09-07T11:10:13;3.37;;;3.07;;
5650;SDS011;40241;52.684;9.758;2023-09-07T11:12:39;4.07;;;3.27;;
5650;SDS011;40241;52.684;9.758;2023-09-07T11:15:08;7.40;;;3.40;;
5650;SDS011;40241;52.684;9.758;2023-09-07T11:17:36;3.10;;;2.90;;
5650;SDS011;40241;52.684;9.758;2023-09-07T11:20:03;4.13;;;3.13;;
5650;SDS011;40241;52.684;9.758;2023-09-07T11:22:32;3.13;;;2.93;;
5650;SDS011;40241;52.684;9.758;2023-09-07T11:25:01;5.43;;;2.63;;
5650;SDS011;40241;52.684;9.758;2023-09-07T11:27:29;3.33;;;3.10;;
5650;SDS011;40241;52.684;9.758;2023-09-07T11:29:55;3.90;;;3.10;;
5650;SDS011;40241;52.684;9.758;2023-09-07T11:32:22;3.53;;;3.23;;
5650;SDS011;40241;52.684;9.758;2023-09-07T11:34:49;3.10;;;2.80;;
5650;SDS011;40241;52.684;9.758;2023-09-07T11:37:22;3.27;;;3.00;;
5650;SDS011;40241;52.684;9.758;2023-09-07T11:39:49;3.23;;;3.00;;
5650;SDS011;40241;52.684;9.758;2023-09-07T11:42:14;3.33;;;3.03;;
5650;SDS011;40241;52.684;9.758;2023-09-07T11:44:39;2.93;;;2.70;;
5650;SDS011;40241;52.684;9.758;2023-09-07T11:47:05;3.13;;;2.87;;
5650;SDS011;40241;52.684;9.758;2023-09-07T11:49:31;3.47;;;3.17;;
5650;SDS011;40241;52.684;9.758;2023-09-07T11:51:58;3.03;;;2.83;;
5650;SDS011;40241;52.684;9.758;2023-09-07T11:54:23;2.20;;;2.00;;
5650;SDS011;40241;52.684;9.758;2023-09-07T11:56:48;3.03;;;2.83;;
5650;SDS011;40241;52.684;9.758;2023-09-07T11:59:14;3.27;;;2.97;;
5650;SDS011;40241;52.684;9.758;2023-09-07T12:01:40;2.90;;;2.70;;
5650;SDS011;40241;52.684;9.758;2023-09-07T12:04:06;3.30;;;3.00;;
5650;SDS011;40241;52.684;9.758;2023-09-07T12:06:31;2.87;;;2.60;;
5650;SDS011;40241;52.684;9.758;2023-09-07T12:08:58;4.30;;;3.10;;
5650;SDS011;40241;52.684;9.758;2023-09-07T12:11:28;3.00;;;2.80;;
5650;SDS011;40241;52.684;9.758;2023-09-07T12:13:53;2.97;;;2.67;;
5650;SDS011;40241;52.684;9.758;2023-09-07T12:16:18;3.27;;;3.00;;
5650;SDS011;40241;52.684;9.758;2023-09-07T12:18:44;3.13;;;2.83;;
5650;SDS011;40241;52.684;9.758;2023-09-07T12:21:09;2.70;;;2.60;;
5650;SDS011;40241;52.684;9.758;2023-09-07T12:23:34;3.73;;;2.90;;
5650;SDS011;40241;52.684;9.758;2023-09-07T12:26:00;3.50;;;2.87;;
5650;SDS011;40241;52.684;9.758;2023-09-07T12:28:26;2.93;;;2.70;;
5650;SDS011;40241;52.684;9.758;2023-09-07T12:30:52;2.57;;;2.37;;
5650;SDS011;40241;52.684;9.758;2023-09-07T12:33:17;2.57;;;2.40;;
5650;SDS011;40241;52.684;9.758;2023-09-07T12:35:42;3.00;;;2.70;;
5650;SDS011;40241;52.684;9.758;2023-09-07T12:38:08;4.07;;;2.97;;
5650;SDS011;40241;52.684;9.758;2023-09-07T12:40:35;2.93;;;2.73;;
5650;SDS011;40241;52.684;9.758;2023-09-07T12:43:01;3.20;;;3.00;;
5650;SDS011;40241;52.684;9.758;2023-09-07T12:45:27;2.60;;;2.40;;
5650;SDS011;40241;52.684;9.758;2023-09-07T12:47:52;5.63;;;2.67;;
5650;SDS011;40241;52.684;9.758;2023-09-07T12:50:17;2.97;;;2.77;;
5650;SDS011;40241;52.684;9.758;2023-09-07T12:52:43;2.93;;;2.73;;
5650;SDS011;40241;52.684;9.758;2023-09-07T12:55:08;3.90;;;2.47;;
5650;SDS011;40241;52.684;9.758;2023-09-07T12:57:34;2.97;;;2.77;;
5650;SDS011;40241;52.684;9.758;2023-09-07T13:00:01;2.63;;;2.43;;
5650;SDS011;40241;52.684;9.758;2023-09-07T13:02:27;3.17;;;2.97;;
5650;SDS011;40241;52.684;9.758;2023-09-07T13:04:53;3.00;;;2.77;;
5650;SDS011;40241;52.684;9.758;2023-09-07T13:07:20;3.50;;;2.97;;
5650;SDS011;40241;52.684;9.758;2023-09-07T13:09:46;2.80;;;2.30;;
5650;SDS011;40241;52.684;9.758;2023-09-07T13:12:11;2.60;;;2.40;;
5650;SDS011;40241;52.684;9.758;2023-09-07T13:14:36;3.13;;;2.87;;
5650;SDS011;40241;52.684;9.758;2023-09-07T13:17:02;3.03;;;2.73;;
5650;SDS011;40241;52.684;9.758;2023-09-07T13:19:27;3.60;;;3.30;;
5650;SDS011;40241;52.684;9.758;2023-09-07T13:21:54;4.43;;;2.23;;
5650;SDS011;40241;52.684;9.758;2023-09-07T13:24:19;2.53;;;2.43;;
5650;SDS011;40241;52.684;9.758;2023-09-07T13:26:47;3.80;;;2.73;;
5650;SDS011;40241;52.684;9.758;2023-09-07T13:29:13;3.20;;;2.90;;
5650;SDS011;40241;52.684;9.758;2023-09-07T13:31:38;2.70;;;2.50;;
5650;SDS011;40241;52.684;9.758;2023-09-07T13:34:03;2.70;;;2.50;;
5650;SDS011;40241;52.684;9.758;2023-09-07T13:36:28;3.20;;;3.00;;
5650;SDS011;40241;52.684;9.758;2023-09-07T13:38:54;3.00;;;2.80;;
5650;SDS011;40241;52.684;9.758;2023-09-07T13:41:22;4.30;;;2.80;;
5650;SDS011;40241;52.684;9.758;2023-09-07T13:43:48;3.20;;;2.90;;
5650;SDS011;40241;52.684;9.758;2023-09-07T13:46:13;2.80;;;2.60;;
5650;SDS011;40241;52.684;9.758;2023-09-07T13:48:38;3.47;;;3.17;;
5650;SDS011;40241;52.684;9.758;2023-09-07T13:51:04;2.33;;;2.20;;
5650;SDS011;40241;52.684;9.758;2023-09-07T13:53:29;2.70;;;2.50;;
5650;SDS011;40241;52.684;9.758;2023-09-07T13:55:54;2.60;;;2.40;;
5650;SDS011;40241;52.684;9.758;2023-09-07T13:58:20;3.20;;;2.90;;
5650;SDS011;40241;52.684;9.758;2023-09-07T14:00:45;2.67;;;2.40;;
5650;SDS011;40241;52.684;9.758;2023-09-07T14:03:11;4.60;;;2.57;;
5650;SDS011;40241;52.684;9.758;2023-09-07T14:05:37;2.83;;;2.63;;
5650;SDS011;40241;52.684;9.758;2023-09-07T14:08:02;4.00;;;3.00;;
5650;SDS011;40241;52.684;9.758;2023-09-07T14:10:28;2.20;;;2.10;;
5650;SDS011;40241;52.684;9.758;2023-09-07T14:12:53;3.73;;;2.90;;
5650;SDS011;40241;52.684;9.758;2023-09-07T14:15:18;3.70;;;2.77;;
5650;SDS011;40241;52.684;9.758;2023-09-07T14:17:44;3.13;;;2.60;;
5650;SDS011;40241;52.684;9.758;2023-09-07T14:20:09;4.40;;;3.10;;
5650;SDS011;40241;52.684;9.758;2023-09-07T14:22:35;3.90;;;2.70;;
5650;SDS011;40241;52.684;9.758;2023-09-07T14:25:00;2.90;;;2.53;;
5650;SDS011;40241;52.684;9.758;2023-09-07T14:27:26;3.57;;;2.47;;
5650;SDS011;40241;52.684;9.758;2023-09-07T14:29:51;3.03;;;2.83;;
5650;SDS011;40241;52.684;9.758;2023-09-07T14:32:16;2.30;;;2.20;;
5650;SDS011;40241;52.684;9.758;2023-09-07T14:34:42;2.87;;;2.67;;
5650;SDS011;40241;52.684;9.758;2023-09-07T14:37:07;3.00;;;2.80;;
5650;SDS011;40241;52.684;9.758;2023-09-07T14:39:32;2.40;;;2.20;;
5650;SDS011;40241;52.684;9.758;2023-09-07T14:41:58;3.20;;;2.50;;
5650;SDS011;40241;52.684;9.758;2023-09-07T14:44:26;4.87;;;2.90;;
5650;SDS011;40241;52.684;9.758;2023-09-07T14:46:51;3.03;;;2.67;;
5650;SDS011;40241;52.684;9.758;2023-09-07T14:49:16;3.20;;;3.00;;
5650;SDS011;40241;52.684;9.758;2023-09-07T14:51:45;2.23;;;2.13;;
5650;SDS011;40241;52.684;9.758;2023-09-07T14:54:11;3.73;;;2.57;;
5650;SDS011;40241;52.684;9.758;2023-09-07T14:56:37;3.00;;;2.80;;